Time;durP1;ratioP1;P1;durP2;ratioP2;P2;SDS_P1;SDS_P2;PMS_P1;PMS_P2;Temp;Humidity;BMP_temperature;BMP_pressure;BME280_temperature;BME280_humidity;BME280_pressure;Samples;Min_cycle;Max_cycle;Signal;HPM_P1;HPM_P2
2022/07/07 00:00:49;;;;;;;11.20;4.53;;;22.90;60.70;;;;;;5049192;28;20212;-89
2022/07/07 00:03:18;;;;;;;12.57;4.90;;;22.90;60.60;;;;;;5048671;28;20200;-88
2022/07/07 00:05:45;;;;;;;9.93;4.40;;;22.90;60.80;;;;;;5048125;28;20209;-89
2022/07/07 00:08:12;;;;;;;12.47;4.63;;;22.90;61.00;;;;;;5046270;28;20200;-88
2022/07/07 00:10:39;;;;;;;8.23;4.03;;;22.90;61.00;;;;;;5047313;28;20220;-90
2022/07/07 00:13:07;;;;;;;13.33;5.03;;;22.90;61.00;;;;;;5048219;28;20210;-89
2022/07/07 00:15:34;;;;;;;11.43;5.07;;;22.90;61.10;;;;;;5048198;28;20251;-88
2022/07/07 00:18:01;;;;;;;7.93;4.13;;;22.90;61.00;;;;;;5047233;28;20208;-88
2022/07/07 00:20:29;;;;;;;11.50;4.73;;;22.90;61.20;;;;;;5042306;28;20273;-90
2022/07/07 00:22:58;;;;;;;8.37;3.97;;;23.00;61.30;;;;;;5048028;28;20897;-89
2022/07/07 00:25:25;;;;;;;13.40;5.07;;;23.00;61.30;;;;;;5049086;28;20216;-89
2022/07/07 00:27:52;;;;;;;8.20;3.83;;;22.90;61.20;;;;;;5047214;28;20295;-90
2022/07/07 00:30:19;;;;;;;9.63;4.17;;;23.00;61.30;;;;;;5047891;28;20207;-89
2022/07/07 00:32:46;;;;;;;10.37;4.63;;;23.00;61.40;;;;;;5049147;28;20215;-89
2022/07/07 00:35:14;;;;;;;12.50;5.00;;;23.00;61.50;;;;;;5044755;28;20262;-90
2022/07/07 00:37:42;;;;;;;13.00;4.83;;;23.00;61.40;;;;;;5049081;28;20648;-90
2022/07/07 00:40:10;;;;;;;14.93;5.13;;;23.00;61.50;;;;;;5048916;28;20204;-88
2022/07/07 00:42:37;;;;;;;9.10;3.90;;;23.00;61.60;;;;;;5046190;28;20299;-88
2022/07/07 00:45:06;;;;;;;9.53;4.57;;;23.00;61.60;;;;;;5032441;28;20981;-89
2022/07/07 00:47:34;;;;;;;12.77;5.60;;;23.00;61.60;;;;;;5048659;28;20211;-90
2022/07/07 00:50:01;;;;;;;11.33;4.50;;;23.10;61.80;;;;;;5047803;28;20743;-90
2022/07/07 00:52:29;;;;;;;16.73;6.00;;;23.10;61.80;;;;;;5047213;28;20345;-90
2022/07/07 00:55:02;;;;;;;9.43;4.27;;;23.10;62.10;;;;;;5047267;28;20206;-91
2022/07/07 00:57:30;;;;;;;14.33;5.33;;;23.10;62.30;;;;;;5047060;28;20204;-89
2022/07/07 00:59:59;;;;;;;9.60;4.50;;;23.10;62.10;;;;;;5047787;28;20208;-89
2022/07/07 01:02:30;;;;;;;12.23;4.97;;;23.10;62.30;;;;;;5049160;28;20203;-89
2022/07/07 01:05:00;;;;;;;9.37;4.03;;;23.10;62.40;;;;;;5046225;28;20244;-90
2022/07/07 01:07:27;;;;;;;11.50;4.93;;;23.10;62.50;;;;;;5046497;28;20664;-92
2022/07/07 01:09:57;;;;;;;11.93;4.53;;;23.20;62.40;;;;;;5046625;28;20310;-89
2022/07/07 01:12:24;;;;;;;11.23;4.13;;;23.10;62.60;;;;;;5048378;28;20701;-88
2022/07/07 01:14:51;;;;;;;10.07;4.10;;;23.10;62.80;;;;;;5039772;28;20209;-88
2022/07/07 01:17:19;;;;;;;10.30;4.53;;;23.20;62.80;;;;;;5036629;28;20230;-89
2022/07/07 01:19:46;;;;;;;14.87;4.93;;;23.20;62.80;;;;;;5046370;28;20252;-89
2022/07/07 01:22:17;;;;;;;11.77;4.10;;;23.20;62.70;;;;;;5047658;28;20246;-89
2022/07/07 01:24:48;;;;;;;19.53;6.30;;;23.20;62.50;;;;;;5046357;28;20282;-89
2022/07/07 01:27:17;;;;;;;7.40;3.07;;;23.20;62.40;;;;;;5048089;28;20677;-89
2022/07/07 01:29:47;;;;;;;15.63;5.37;;;23.20;62.00;;;;;;5047025;28;20309;-90
2022/07/07 01:32:15;;;;;;;6.30;2.53;;;23.20;61.80;;;;;;5047090;28;20202;-88
2022/07/07 01:34:44;;;;;;;16.83;5.73;;;23.20;61.80;;;;;;5049117;28;20243;-89
2022/07/07 01:37:24;;;;;;;9.23;3.17;;;23.30;61.60;;;;;;5035903;28;20228;-87
2022/07/07 01:39:54;;;;;;;12.57;4.13;;;23.20;61.60;;;;;;5049593;28;20582;-89
2022/07/07 01:42:21;;;;;;;9.33;3.40;;;23.20;61.50;;;;;;5044158;28;20238;-89
2022/07/07 01:44:51;;;;;;;12.00;3.80;;;23.20;61.10;;;;;;5048419;28;20235;-89
2022/07/07 01:47:20;;;;;;;7.77;2.83;;;23.20;61.20;;;;;;5046904;28;20210;-88
2022/07/07 01:49:50;;;;;;;7.07;2.67;;;23.20;61.10;;;;;;5048297;28;20299;-90
2022/07/07 01:52:17;;;;;;;8.60;3.07;;;23.20;61.10;;;;;;5048280;28;20201;-89
2022/07/07 01:54:45;;;;;;;9.63;3.10;;;23.20;61.00;;;;;;5045219;28;20262;-89
2022/07/07 01:57:14;;;;;;;10.37;3.10;;;23.20;61.10;;;;;;5047430;28;20762;-89
2022/07/07 01:59:41;;;;;;;11.20;3.80;;;23.20;61.10;;;;;;5038555;28;20664;-89
2022/07/07 02:02:08;;;;;;;8.70;3.20;;;23.20;61.20;;;;;;5034670;28;20209;-90
2022/07/07 02:04:35;;;;;;;13.53;4.10;;;23.20;61.20;;;;;;5046008;28;20613;-90
2022/07/07 02:07:03;;;;;;;11.73;4.07;;;23.20;61.20;;;;;;5045873;28;20202;-88
2022/07/07 02:09:30;;;;;;;7.73;2.57;;;23.20;61.20;;;;;;5039799;28;20198;-89
2022/07/07 02:11:57;;;;;;;8.50;2.83;;;23.10;61.00;;;;;;5047575;28;20230;-89
2022/07/07 02:14:25;;;;;;;12.03;4.17;;;23.10;61.20;;;;;;5047085;28;20671;-89
2022/07/07 02:16:52;;;;;;;8.17;2.70;;;23.10;61.20;;;;;;5046745;28;20278;-91
2022/07/07 02:19:19;;;;;;;9.80;3.47;;;23.10;61.20;;;;;;5045305;28;20224;-89
2022/07/07 02:21:47;;;;;;;12.03;3.97;;;23.10;61.20;;;;;;5047458;28;20964;-89
2022/07/07 02:24:14;;;;;;;7.30;2.63;;;23.10;61.20;;;;;;5046009;28;20723;-89
2022/07/07 02:26:45;;;;;;;15.47;4.67;;;23.10;61.40;;;;;;5044417;28;20752;-89
2022/07/07 02:29:12;;;;;;;7.27;2.67;;;23.10;61.50;;;;;;5037034;28;20218;-91
2022/07/07 02:31:40;;;;;;;9.33;3.00;;;23.10;61.40;;;;;;5046039;28;20727;-89
2022/07/07 02:34:07;;;;;;;7.37;2.80;;;23.10;61.40;;;;;;5047297;28;20298;-89
2022/07/07 02:36:34;;;;;;;9.87;2.77;;;23.10;61.40;;;;;;5046773;28;20237;-88
2022/07/07 02:39:01;;;;;;;18.63;3.07;;;23.10;61.40;;;;;;5046916;28;20550;-89
2022/07/07 02:41:28;;;;;;;8.07;3.00;;;23.10;61.40;;;;;;5046647;28;20214;-89
2022/07/07 02:43:55;;;;;;;6.33;2.37;;;23.10;61.50;;;;;;5049471;28;20238;-88
2022/07/07 02:46:22;;;;;;;10.77;3.80;;;23.10;61.50;;;;;;5050152;28;20203;-89
2022/07/07 02:48:51;;;;;;;8.37;3.03;;;23.10;61.50;;;;;;5050358;28;20290;-88
2022/07/07 02:51:18;;;;;;;8.53;3.03;;;23.00;61.50;;;;;;5041914;28;20204;-89
2022/07/07 02:53:45;;;;;;;10.07;3.63;;;23.00;61.30;;;;;;5042018;28;20207;-90
2022/07/07 02:56:12;;;;;;;11.83;4.00;;;23.10;61.60;;;;;;5049472;28;20251;-88
2022/07/07 02:58:39;;;;;;;9.57;3.17;;;23.10;61.60;;;;;;5050182;28;20320;-90
2022/07/07 03:01:06;;;;;;;10.73;3.23;;;23.00;61.50;;;;;;5049480;28;20260;-89
2022/07/07 03:03:33;;;;;;;8.23;2.90;;;23.10;61.80;;;;;;5046460;28;20200;-88
2022/07/07 03:06:03;;;;;;;6.90;2.87;;;23.10;61.90;;;;;;5049670;28;20330;-90
2022/07/07 03:08:31;;;;;;;10.60;3.77;;;23.10;62.10;;;;;;5051155;28;20679;-89
2022/07/07 03:10:58;;;;;;;15.23;5.07;;;23.00;61.80;;;;;;5046796;28;20220;-88
2022/07/07 03:13:25;;;;;;;16.53;3.90;;;23.00;61.90;;;;;;5048530;28;20837;-88
2022/07/07 03:15:52;;;;;;;8.57;3.13;;;23.00;62.10;;;;;;5050007;28;20211;-88
2022/07/07 03:18:19;;;;;;;6.63;2.70;;;23.00;62.10;;;;;;5050053;28;20234;-90
2022/07/07 03:20:46;;;;;;;14.80;4.03;;;23.00;62.10;;;;;;5037814;28;20609;-89
2022/07/07 03:23:14;;;;;;;12.93;3.60;;;23.00;62.10;;;;;;5036480;28;20261;-90
2022/07/07 03:25:41;;;;;;;9.10;3.40;;;23.00;62.30;;;;;;5048087;28;20221;-89
2022/07/07 03:28:08;;;;;;;14.80;4.10;;;23.00;62.20;;;;;;5049644;28;20203;-89
2022/07/07 03:30:35;;;;;;;7.43;2.83;;;22.90;62.10;;;;;;5049965;28;20571;-90
2022/07/07 03:33:02;;;;;;;10.90;4.03;;;22.90;62.10;;;;;;5054506;28;20197;-90
2022/07/07 03:35:29;;;;;;;11.03;3.73;;;22.90;62.20;;;;;;5056959;28;20258;-91
2022/07/07 03:37:56;;;;;;;12.37;4.47;;;22.90;62.20;;;;;;5055580;28;20288;-89
2022/07/07 03:40:24;;;;;;;8.60;3.03;;;22.90;62.30;;;;;;5048178;28;20617;-89
2022/07/07 03:42:51;;;;;;;12.70;4.13;;;22.90;62.40;;;;;;5049100;28;20258;-91
2022/07/07 03:45:19;;;;;;;8.67;2.87;;;22.80;62.20;;;;;;5049993;28;20774;-89
2022/07/07 03:47:46;;;;;;;11.30;3.60;;;22.80;62.30;;;;;;5051656;28;20236;-89
2022/07/07 03:50:13;;;;;;;9.60;2.83;;;22.80;62.40;;;;;;5051124;28;20293;-88
2022/07/07 03:52:44;;;;;;;8.13;2.87;;;22.80;62.40;;;;;;5051775;28;20223;-92
2022/07/07 03:55:11;;;;;;;11.43;3.60;;;22.80;62.70;;;;;;5050013;28;20291;-90
2022/07/07 03:57:41;;;;;;;12.97;4.87;;;22.80;62.50;;;;;;5045613;28;20226;-88
2022/07/07 04:00:09;;;;;;;6.30;2.43;;;22.80;62.60;;;;;;5031608;28;20201;-89
2022/07/07 04:02:36;;;;;;;10.23;3.83;;;22.70;62.60;;;;;;5039924;28;20193;-87
2022/07/07 04:05:03;;;;;;;18.80;6.30;;;22.70;62.60;;;;;;5050335;28;20537;-88
2022/07/07 04:07:33;;;;;;;11.07;3.83;;;22.70;62.80;;;;;;5045108;28;20291;-89
2022/07/07 04:10:01;;;;;;;10.43;3.47;;;22.70;62.90;;;;;;5042406;28;20206;-90
2022/07/07 04:12:28;;;;;;;11.93;3.63;;;22.70;62.90;;;;;;5049155;28;20299;-88
2022/07/07 04:14:57;;;;;;;8.67;2.83;;;22.70;62.90;;;;;;5052133;28;20303;-91
2022/07/07 04:17:24;;;;;;;9.17;3.07;;;22.70;62.90;;;;;;5051192;28;21133;-91
2022/07/07 04:19:54;;;;;;;9.17;3.13;;;22.70;63.00;;;;;;5052989;28;20660;-89
2022/07/07 04:22:22;;;;;;;9.73;3.63;;;22.70;62.90;;;;;;5050044;28;20197;-90
2022/07/07 04:24:49;;;;;;;7.50;2.77;;;22.60;63.00;;;;;;5046929;28;21016;-89
2022/07/07 04:27:16;;;;;;;9.30;4.03;;;22.70;63.20;;;;;;5049376;28;20301;-88
2022/07/07 04:29:43;;;;;;;11.77;4.10;;;22.70;63.20;;;;;;5047196;28;20680;-89
2022/07/07 04:32:12;;;;;;;10.37;3.27;;;22.70;63.30;;;;;;5051016;28;20366;-89
2022/07/07 04:34:39;;;;;;;15.60;4.27;;;22.60;63.50;;;;;;5048378;28;20208;-88
2022/07/07 04:37:06;;;;;;;7.87;3.13;;;22.60;63.50;;;;;;5048263;28;20223;-88
2022/07/07 04:39:34;;;;;;;8.67;3.13;;;22.60;63.50;;;;;;5047159;28;20262;-90
2022/07/07 04:42:01;;;;;;;11.03;3.70;;;22.60;63.50;;;;;;5048523;28;20208;-89
2022/07/07 04:44:29;;;;;;;13.00;4.60;;;22.60;63.60;;;;;;5049477;28;20204;-92
2022/07/07 04:46:57;;;;;;;14.93;3.37;;;22.60;64.00;;;;;;5048769;28;20295;-92
2022/07/07 04:49:26;;;;;;;9.60;3.73;;;22.60;64.10;;;;;;5039072;28;20228;-91
2022/07/07 04:51:53;;;;;;;11.70;3.47;;;22.60;64.30;;;;;;5036257;28;20569;-89
2022/07/07 04:54:26;;;;;;;11.63;2.90;;;22.50;64.50;;;;;;5035493;28;20323;-92
2022/07/07 04:56:54;;;;;;;13.83;3.67;;;22.50;65.20;;;;;;5049400;28;20743;-88
2022/07/07 04:59:21;;;;;;;14.63;4.53;;;22.40;65.40;;;;;;5048474;28;20200;-90
2022/07/07 05:01:51;;;;;;;6.10;2.20;;;22.40;66.30;;;;;;5046004;28;20261;-88
2022/07/07 05:04:19;;;;;;;13.43;4.43;;;22.30;67.30;;;;;;5046963;28;20261;-87
2022/07/07 05:06:47;;;;;;;7.47;2.27;;;22.20;68.10;;;;;;5046405;28;20196;-87
2022/07/07 05:09:15;;;;;;;9.60;2.80;;;22.20;67.50;;;;;;5045245;28;20312;-88
2022/07/07 05:11:42;;;;;;;11.70;3.73;;;22.10;67.60;;;;;;5050254;28;20267;-87
2022/07/07 05:14:09;;;;;;;11.23;3.40;;;22.00;67.40;;;;;;5052442;28;20219;-89
2022/07/07 05:16:36;;;;;;;8.83;2.63;;;22.00;67.60;;;;;;5048850;28;20262;-88
2022/07/07 05:19:04;;;;;;;7.00;2.47;;;21.90;67.70;;;;;;5048593;28;20691;-88
2022/07/07 05:21:31;;;;;;;7.77;2.63;;;21.90;67.80;;;;;;5048204;28;20208;-89
2022/07/07 05:23:59;;;;;;;7.37;2.60;;;21.90;67.80;;;;;;5048366;28;20200;-89
2022/07/07 05:26:26;;;;;;;10.37;3.27;;;21.80;67.90;;;;;;5047059;28;20235;-88
2022/07/07 05:28:54;;;;;;;7.73;2.57;;;21.80;67.70;;;;;;5048729;28;20232;-89
2022/07/07 05:31:22;;;;;;;12.63;4.13;;;21.80;68.40;;;;;;5040151;28;20228;-88
2022/07/07 05:33:51;;;;;;;6.80;2.30;;;21.70;68.20;;;;;;5045354;28;20310;-91
2022/07/07 05:36:18;;;;;;;7.43;2.60;;;21.70;68.80;;;;;;5046833;28;20208;-89
2022/07/07 05:38:46;;;;;;;11.20;3.33;;;21.70;68.60;;;;;;5048410;28;20231;-89
2022/07/07 05:41:14;;;;;;;8.73;2.80;;;21.70;68.80;;;;;;5035117;28;20209;-88
2022/07/07 05:43:41;;;;;;;7.60;2.67;;;21.70;69.10;;;;;;5029217;28;20205;-89
2022/07/07 05:46:08;;;;;;;9.33;2.77;;;21.70;68.80;;;;;;5028297;28;20259;-90
2022/07/07 05:48:35;;;;;;;9.77;2.50;;;21.70;68.90;;;;;;5028373;28;20267;-89
2022/07/07 05:51:02;;;;;;;10.53;3.10;;;21.70;69.00;;;;;;5028029;28;20288;-90
2022/07/07 05:53:30;;;;;;;9.43;3.00;;;21.70;68.90;;;;;;5031320;28;20204;-90
2022/07/07 05:55:57;;;;;;;6.87;2.50;;;21.70;68.40;;;;;;5048158;28;20299;-89
2022/07/07 05:58:26;;;;;;;8.23;2.30;;;21.70;68.20;;;;;;5047515;28;20358;-89
2022/07/07 06:00:54;;;;;;;8.50;2.47;;;21.70;68.20;;;;;;5047627;28;20988;-88
2022/07/07 06:03:22;;;;;;;12.03;3.07;;;21.70;68.10;;;;;;5046599;28;20203;-90
2022/07/07 06:05:49;;;;;;;13.00;4.20;;;21.70;67.60;;;;;;5046025;28;20208;-88
2022/07/07 06:08:18;;;;;;;11.20;3.37;;;21.70;67.60;;;;;;5046841;28;20204;-90
2022/07/07 06:10:45;;;;;;;9.77;3.23;;;21.70;67.00;;;;;;5047856;28;20307;-89
2022/07/07 06:13:12;;;;;;;11.53;3.70;;;21.70;66.80;;;;;;5047469;28;20196;-89
2022/07/07 06:15:40;;;;;;;9.43;2.93;;;21.70;66.80;;;;;;5046284;28;20295;-89
2022/07/07 06:18:07;;;;;;;12.80;3.37;;;21.70;66.50;;;;;;5046459;28;20307;-88
2022/07/07 06:20:34;;;;;;;12.33;3.90;;;21.70;66.60;;;;;;5029981;28;20282;-89
2022/07/07 06:23:01;;;;;;;10.73;3.00;;;21.70;66.60;;;;;;5038610;28;20236;-89
2022/07/07 06:25:28;;;;;;;12.27;4.20;;;21.70;66.20;;;;;;5036365;28;20201;-88
2022/07/07 06:27:55;;;;;;;18.43;4.23;;;21.70;66.00;;;;;;5036765;28;20299;-89
2022/07/07 06:30:22;;;;;;;12.03;3.97;;;21.70;65.80;;;;;;5036373;28;20281;-89
2022/07/07 06:32:51;;;;;;;10.07;3.10;;;21.70;65.20;;;;;;5035107;28;20236;-93
2022/07/07 06:35:20;;;;;;;7.40;2.63;;;21.80;64.80;;;;;;5035085;28;20228;-88
2022/07/07 06:37:47;;;;;;;9.77;3.07;;;21.80;65.10;;;;;;5036874;28;20691;-89
2022/07/07 06:40:14;;;;;;;15.80;3.83;;;21.80;65.10;;;;;;5037847;28;20283;-88
2022/07/07 06:42:42;;;;;;;7.70;2.73;;;21.90;65.20;;;;;;5036136;28;20199;-90
2022/07/07 06:45:09;;;;;;;13.57;3.70;;;21.90;64.90;;;;;;5036256;28;20197;-88
2022/07/07 06:47:36;;;;;;;11.00;3.83;;;22.00;64.60;;;;;;5037717;28;20279;-89
2022/07/07 06:50:06;;;;;;;12.87;3.00;;;22.00;64.40;;;;;;5036744;28;20229;-89
2022/07/07 06:52:34;;;;;;;11.70;3.37;;;22.00;64.70;;;;;;5037810;28;20946;-90
2022/07/07 06:55:02;;;;;;;10.23;3.43;;;22.10;64.50;;;;;;5036016;28;20203;-89
2022/07/07 06:57:29;;;;;;;14.27;4.77;;;22.20;64.10;;;;;;5037398;28;20224;-90
2022/07/07 06:59:56;;;;;;;11.33;3.47;;;22.20;63.90;;;;;;5037053;28;20192;-89
2022/07/07 07:02:25;;;;;;;14.17;3.60;;;22.20;63.80;;;;;;5035803;28;20760;-91
2022/07/07 07:04:52;;;;;;;11.50;3.20;;;22.20;63.50;;;;;;5036700;28;20196;-89
2022/07/07 07:07:20;;;;;;;15.83;4.67;;;22.30;63.50;;;;;;5036362;28;20218;-90
2022/07/07 07:09:47;;;;;;;10.77;3.33;;;22.30;63.50;;;;;;5036126;28;20239;-90
2022/07/07 07:12:18;;;;;;;8.53;2.97;;;22.30;63.10;;;;;;5035938;28;20951;-90
2022/07/07 07:14:45;;;;;;;12.90;4.03;;;22.40;62.90;;;;;;5037969;28;20667;-92
2022/07/07 07:17:12;;;;;;;12.77;4.13;;;22.30;62.90;;;;;;5036332;28;20743;-89
2022/07/07 07:19:39;;;;;;;14.57;3.43;;;22.40;62.70;;;;;;5037729;28;20926;-89
2022/07/07 07:22:07;;;;;;;7.10;2.77;;;22.40;62.50;;;;;;5040072;28;20207;-88
2022/07/07 07:24:35;;;;;;;14.03;4.73;;;22.50;62.70;;;;;;5041840;28;20200;-89
2022/07/07 07:27:02;;;;;;;9.77;3.17;;;22.50;62.20;;;;;;5037828;28;20349;-88
2022/07/07 07:29:29;;;;;;;8.27;3.10;;;22.50;62.20;;;;;;5040655;28;20208;-92
2022/07/07 07:31:56;;;;;;;9.20;2.97;;;22.50;62.10;;;;;;5049365;28;20660;-90
2022/07/07 07:34:23;;;;;;;11.30;3.87;;;22.50;61.80;;;;;;5051081;28;20981;-87
2022/07/07 07:36:50;;;;;;;8.87;2.90;;;22.60;62.20;;;;;;5050079;28;20745;-88
2022/07/07 07:39:17;;;;;;;10.93;3.20;;;22.60;62.50;;;;;;5049687;28;20236;-88
2022/07/07 07:41:47;;;;;;;12.93;3.03;;;22.60;62.60;;;;;;5043377;28;20229;-90
2022/07/07 07:45:09;;;;;;;8.10;2.63;;;22.70;62.30;;;;;;5051005;28;20859;-88
2022/07/07 07:47:01;;;;;;;10.07;2.73;;;22.70;62.00;;;;;;5050093;28;20259;-89
2022/07/07 07:49:28;;;;;;;11.13;3.77;;;22.70;62.10;;;;;;5050570;28;20591;-88
2022/07/07 07:51:55;;;;;;;8.80;2.53;;;22.70;62.10;;;;;;5050709;28;20252;-88
2022/07/07 07:54:22;;;;;;;8.20;2.90;;;22.80;62.30;;;;;;5050813;28;20192;-89
2022/07/07 07:56:50;;;;;;;21.13;6.30;;;22.80;62.20;;;;;;5048386;28;20585;-88
2022/07/07 07:59:19;;;;;;;12.43;4.40;;;22.90;62.10;;;;;;5048887;28;20228;-95
2022/07/07 08:01:47;;;;;;;9.50;3.13;;;22.90;62.20;;;;;;5043576;28;20207;-89
2022/07/07 08:04:14;;;;;;;12.07;3.77;;;22.90;62.10;;;;;;5042989;28;20800;-88
2022/07/07 08:06:41;;;;;;;12.93;4.13;;;23.00;62.10;;;;;;5046822;28;20581;-87
2022/07/07 08:09:08;;;;;;;9.73;2.97;;;23.10;62.70;;;;;;5038581;28;20294;-90
2022/07/07 08:11:38;;;;;;;16.13;4.80;;;23.10;61.90;;;;;;5045455;28;20207;-90
2022/07/07 08:14:09;;;;;;;13.13;4.50;;;23.20;62.00;;;;;;5043916;28;20641;-92
2022/07/07 08:16:39;;;;;;;13.10;4.13;;;23.20;62.50;;;;;;5043568;28;20235;-88
2022/07/07 08:19:06;;;;;;;7.80;2.90;;;23.30;62.10;;;;;;5047841;28;20233;-88
2022/07/07 08:21:33;;;;;;;14.83;4.47;;;23.30;62.10;;;;;;5045206;28;20281;-90
2022/07/07 08:24:01;;;;;;;10.90;3.17;;;23.40;62.20;;;;;;5044281;28;20198;-89
2022/07/07 08:26:28;;;;;;;12.53;4.37;;;23.50;61.80;;;;;;5046079;28;20211;-88
2022/07/07 08:28:55;;;;;;;9.73;3.07;;;23.50;61.20;;;;;;5049743;28;20275;-90
2022/07/07 08:31:24;;;;;;;9.73;3.17;;;23.60;60.50;;;;;;5048651;28;20658;-88
2022/07/07 08:33:52;;;;;;;14.07;3.70;;;23.60;60.20;;;;;;5047258;28;20302;-90
2022/07/07 08:36:19;;;;;;;6.90;2.20;;;23.60;60.30;;;;;;5051197;28;20600;-88
2022/07/07 08:38:47;;;;;;;7.93;2.40;;;23.60;60.40;;;;;;5051751;28;20732;-89
2022/07/07 08:41:15;;;;;;;8.37;2.63;;;23.60;59.80;;;;;;5040697;28;20255;-88
2022/07/07 08:43:43;;;;;;;9.80;3.37;;;23.60;60.20;;;;;;5043076;28;20234;-88
2022/07/07 08:46:10;;;;;;;11.80;3.70;;;23.50;60.60;;;;;;5049690;28;20270;-89
2022/07/07 08:48:39;;;;;;;10.63;3.70;;;23.50;60.90;;;;;;5040438;28;20292;-89
2022/07/07 08:51:08;;;;;;;8.70;2.63;;;23.50;60.80;;;;;;5040737;28;20265;-88
2022/07/07 08:53:37;;;;;;;13.43;4.13;;;23.40;60.80;;;;;;5050310;28;20213;-88
2022/07/07 08:56:06;;;;;;;6.07;2.43;;;23.30;60.90;;;;;;5050018;28;20214;-89
2022/07/07 08:58:35;;;;;;;11.77;3.77;;;23.30;61.00;;;;;;5049063;28;20252;-87
2022/07/07 09:01:02;;;;;;;11.47;3.67;;;23.30;61.40;;;;;;5049406;28;20203;-87
2022/07/07 09:03:30;;;;;;;14.30;4.70;;;23.20;61.20;;;;;;5045142;28;20703;-89
2022/07/07 09:06:00;;;;;;;7.87;2.57;;;23.20;60.90;;;;;;5049682;28;20212;-89
2022/07/07 09:08:30;;;;;;;8.33;3.03;;;23.10;60.60;;;;;;5049947;28;20204;-90
2022/07/07 09:10:58;;;;;;;17.67;4.57;;;23.10;60.40;;;;;;5041921;28;20203;-89
2022/07/07 09:13:29;;;;;;;16.90;4.83;;;23.10;60.70;;;;;;5044969;28;20196;-89
2022/07/07 09:15:58;;;;;;;11.73;3.10;;;23.10;60.80;;;;;;5039826;28;20220;-88
2022/07/07 09:18:30;;;;;;;7.97;3.03;;;23.00;60.90;;;;;;5046339;28;20288;-88
2022/07/07 09:20:59;;;;;;;9.50;3.43;;;23.00;61.20;;;;;;5044285;28;20274;-88
2022/07/07 09:23:26;;;;;;;16.10;5.10;;;23.00;61.30;;;;;;5043781;28;20208;-87
2022/07/07 09:25:54;;;;;;;10.33;3.20;;;23.00;61.30;;;;;;5045461;28;20235;-89
2022/07/07 09:28:26;;;;;;;11.47;3.77;;;23.00;61.30;;;;;;5047997;28;20297;-90
2022/07/07 09:30:55;;;;;;;14.97;4.27;;;23.00;61.30;;;;;;5034892;28;20314;-88
2022/07/07 09:33:24;;;;;;;18.63;5.73;;;23.10;61.60;;;;;;5041278;28;20200;-89
2022/07/07 09:38:43;;;;;;;12.57;3.83;;;23.10;60.70;;;;;;5041015;28;20303;-89
2022/07/07 09:41:13;;;;;;;12.80;4.17;;;23.10;60.70;;;;;;5040945;28;20210;-87
2022/07/07 09:43:46;;;;;;;10.73;3.97;;;23.10;61.20;;;;;;5034247;28;20206;-89
2022/07/07 09:46:18;;;;;;;10.07;3.27;;;23.10;61.20;;;;;;5044016;28;20207;-88
2022/07/07 09:48:47;;;;;;;6.50;2.27;;;23.10;61.10;;;;;;5047887;28;20220;-89
2022/07/07 09:51:23;;;;;;;11.97;3.77;;;23.10;61.80;;;;;;5048471;28;20664;-89
2022/07/07 09:54:03;;;;;;;19.37;5.80;;;23.00;62.50;;;;;;5045156;28;20207;-89
2022/07/07 09:56:33;;;;;;;10.37;3.50;;;23.00;63.70;;;;;;5034150;28;20279;-88
2022/07/07 09:59:02;;;;;;;9.23;2.93;;;22.90;63.70;;;;;;5046549;28;20240;-89
2022/07/07 10:01:30;;;;;;;9.43;3.40;;;22.90;64.30;;;;;;5048111;28;20734;-87
2022/07/07 10:03:59;;;;;;;7.93;2.63;;;22.90;63.90;;;;;;5047355;28;20249;-87
2022/07/07 10:06:29;;;;;;;8.20;2.63;;;22.70;63.70;;;;;;5046806;28;20246;-88
2022/07/07 10:09:03;;;;;;;5.57;1.83;;;22.70;63.90;;;;;;5048722;28;20241;-89
2022/07/07 10:11:40;;;;;;;19.23;6.20;;;22.60;64.00;;;;;;5045326;28;20231;-89
2022/07/07 10:14:15;;;;;;;10.63;3.10;;;22.50;64.40;;;;;;5032505;28;20193;-87
2022/07/07 10:16:44;;;;;;;12.13;3.93;;;22.40;64.80;;;;;;5035215;28;20259;-86
2022/07/07 10:19:12;;;;;;;11.70;3.63;;;22.40;64.50;;;;;;5034956;28;20213;-87
2022/07/07 10:21:42;;;;;;;13.23;3.93;;;22.30;64.60;;;;;;5037285;28;20196;-87
2022/07/07 10:24:11;;;;;;;13.17;4.43;;;22.30;64.70;;;;;;5030889;28;20212;-91
2022/07/07 10:26:41;;;;;;;15.73;5.03;;;22.30;65.30;;;;;;5032321;28;21021;-88
2022/07/07 10:29:09;;;;;;;5.47;1.97;;;22.30;64.80;;;;;;5038958;28;20223;-88
2022/07/07 10:31:41;;;;;;;14.90;4.60;;;22.30;64.30;;;;;;5036844;28;20215;-89
2022/07/07 10:34:10;;;;;;;8.53;2.73;;;22.30;63.80;;;;;;5036719;28;20502;-88
2022/07/07 10:37:06;;;;;;;11.23;3.57;;;22.30;63.60;;;;;;5035485;28;20262;-89
2022/07/07 10:39:41;;;;;;;12.83;3.77;;;22.40;63.50;;;;;;5000250;28;20737;-87
2022/07/07 10:42:35;;;;;;;8.47;2.80;;;22.40;63.20;;;;;;5034317;28;20203;-90
2022/07/07 10:45:04;;;;;;;11.67;3.70;;;22.40;63.10;;;;;;5034413;28;20360;-89
2022/07/07 10:47:35;;;;;;;8.90;2.97;;;22.50;62.70;;;;;;5034108;28;20200;-89
2022/07/07 10:50:22;;;;;;;10.47;3.50;;;22.50;62.60;;;;;;5035439;28;20287;-89
2022/07/07 10:52:49;;;;;;;9.23;3.07;;;22.60;62.80;;;;;;5036760;28;20300;-89
2022/07/07 10:55:18;;;;;;;15.33;4.27;;;22.60;62.80;;;;;;5036219;28;20204;-89
2022/07/07 10:57:47;;;;;;;10.33;3.10;;;22.70;62.50;;;;;;5035340;28;20200;-88
2022/07/07 11:00:16;;;;;;;18.00;5.63;;;22.80;62.70;;;;;;5035008;28;20305;-88
2022/07/07 11:02:47;;;;;;;12.40;3.50;;;22.90;62.50;;;;;;5043789;28;20304;-88
2022/07/07 11:05:32;;;;;;;12.97;4.10;;;22.90;62.60;;;;;;5044474;28;20215;-88
2022/07/07 11:08:08;;;;;;;7.63;2.73;;;23.00;64.70;;;;;;5048164;28;20299;-88
2022/07/07 11:10:51;;;;;;;11.07;3.40;;;23.00;64.80;;;;;;5047857;28;20223;-88
2022/07/07 11:13:21;;;;;;;7.40;2.77;;;22.90;64.60;;;;;;5034693;28;20204;-88
2022/07/07 11:15:50;;;;;;;7.50;2.50;;;22.90;64.70;;;;;;5049094;28;20262;-87
2022/07/07 11:18:19;;;;;;;11.13;3.30;;;22.90;65.20;;;;;;5048547;28;20213;-89
2022/07/07 11:20:57;;;;;;;10.27;3.03;;;22.80;65.70;;;;;;5049188;28;20197;-89
2022/07/07 11:23:27;;;;;;;8.10;2.83;;;22.70;66.60;;;;;;5048521;28;21015;-90
2022/07/07 11:25:58;;;;;;;9.27;3.00;;;22.70;66.60;;;;;;5049460;28;20320;-87
2022/07/07 11:28:27;;;;;;;7.27;2.30;;;22.70;67.30;;;;;;5049905;28;20301;-88
2022/07/07 11:31:06;;;;;;;11.63;3.10;;;22.70;66.80;;;;;;5047194;28;20201;-90
2022/07/07 11:33:33;;;;;;;7.27;2.57;;;22.70;67.50;;;;;;5047588;28;20300;-88
2022/07/07 11:36:10;;;;;;;17.57;4.70;;;22.70;66.20;;;;;;5046478;28;20244;-89
2022/07/07 11:38:37;;;;;;;18.60;4.90;;;22.70;65.40;;;;;;5033156;28;20199;-88
2022/07/07 11:41:06;;;;;;;9.27;3.13;;;22.80;65.30;;;;;;5049077;28;20305;-88
2022/07/07 11:43:33;;;;;;;12.90;4.17;;;22.80;64.80;;;;;;5048150;28;20209;-88
2022/07/07 11:46:03;;;;;;;10.67;3.37;;;22.80;64.20;;;;;;5049304;28;20937;-89
2022/07/07 11:48:34;;;;;;;8.03;2.97;;;22.90;63.10;;;;;;5047125;28;20975;-88
2022/07/07 11:51:02;;;;;;;17.83;5.47;;;22.90;62.50;;;;;;5047721;28;20210;-89
2022/07/07 11:53:29;;;;;;;11.23;3.70;;;23.00;62.70;;;;;;5048920;28;20253;-88
2022/07/07 11:55:57;;;;;;;8.97;3.10;;;23.10;62.40;;;;;;5048631;28;20204;-89
2022/07/07 11:58:25;;;;;;;13.07;4.30;;;23.10;62.20;;;;;;5043863;28;20966;-90
2022/07/07 12:00:54;;;;;;;10.77;3.60;;;23.20;61.70;;;;;;5047647;28;20231;-87
2022/07/07 12:03:29;;;;;;;10.27;3.73;;;23.30;61.60;;;;;;5049123;28;20282;-88
2022/07/07 12:05:56;;;;;;;13.33;4.40;;;23.50;61.70;;;;;;5047679;28;20208;-87
2022/07/07 12:08:36;;;;;;;20.87;5.83;;;23.50;60.80;;;;;;5048358;28;20200;-86
2022/07/07 12:11:04;;;;;;;10.27;3.47;;;23.60;59.90;;;;;;5037196;28;20295;-87
2022/07/07 12:13:32;;;;;;;13.90;4.70;;;23.60;60.00;;;;;;5047670;28;20204;-88
2022/07/07 12:16:03;;;;;;;9.90;3.13;;;23.60;59.80;;;;;;5044750;28;20231;-90
2022/07/07 12:18:38;;;;;;;7.90;2.60;;;23.50;59.50;;;;;;5041662;28;20203;-88
2022/07/07 12:21:07;;;;;;;11.53;3.73;;;23.50;59.40;;;;;;5048805;28;20200;-88
2022/07/07 12:23:43;;;;;;;17.23;5.37;;;23.40;59.60;;;;;;5049793;28;20204;-89
2022/07/07 12:26:15;;;;;;;9.23;3.20;;;23.40;58.90;;;;;;5054576;28;20212;-88
2022/07/07 12:28:44;;;;;;;10.10;2.70;;;23.30;59.30;;;;;;5046887;28;20283;-88
2022/07/07 12:31:17;;;;;;;17.43;4.93;;;23.30;59.30;;;;;;5048802;28;20575;-86
2022/07/07 12:33:48;;;;;;;10.90;2.67;;;23.40;59.50;;;;;;5048393;28;20224;-88
2022/07/07 12:36:17;;;;;;;9.30;3.33;;;23.30;59.40;;;;;;5048768;28;20215;-88
2022/07/07 12:38:46;;;;;;;12.33;3.60;;;23.40;59.40;;;;;;5047695;28;20264;-88
2022/07/07 12:41:25;;;;;;;11.77;3.40;;;23.40;59.10;;;;;;5046093;28;20204;-90
2022/07/07 12:43:54;;;;;;;11.67;2.73;;;23.40;58.80;;;;;;5048011;28;20241;-87
2022/07/07 12:46:22;;;;;;;15.60;4.60;;;23.40;58.40;;;;;;5046111;28;20200;-87
2022/07/07 12:48:51;;;;;;;9.30;3.17;;;23.40;58.40;;;;;;5047390;28;20207;-87
2022/07/07 12:51:24;;;;;;;19.17;5.10;;;23.30;58.10;;;;;;5045991;28;20655;-88